sensor_id;sensor_type;location;lat;lon;timestamp;P1;durP1;ratioP1;P2;durP2;ratioP2
76373;SDS011;65197;50.164;8.012;2023-02-15T00:01:20;40.05;;;17.80;;
76373;SDS011;65197;50.164;8.012;2023-02-15T00:03:47;37.03;;;17.33;;
76373;SDS011;65197;50.164;8.012;2023-02-15T00:06:13;37.30;;;16.95;;
76373;SDS011;65197;50.164;8.012;2023-02-15T00:08:39;42.15;;;17.23;;
76373;SDS011;65197;50.164;8.012;2023-02-15T00:11:06;38.97;;;15.68;;
76373;SDS011;65197;50.164;8.012;2023-02-15T00:13:31;44.47;;;19.08;;
76373;SDS011;65197;50.164;8.012;2023-02-15T00:16:04;42.75;;;17.60;;
76373;SDS011;65197;50.164;8.012;2023-02-15T00:18:31;38.03;;;16.88;;
76373;SDS011;65197;50.164;8.012;2023-02-15T00:20:56;44.80;;;19.63;;
76373;SDS011;65197;50.164;8.012;2023-02-15T00:23:22;44.55;;;19.08;;
76373;SDS011;65197;50.164;8.012;2023-02-15T00:25:48;40.58;;;17.33;;
76373;SDS011;65197;50.164;8.012;2023-02-15T00:28:13;37.88;;;16.67;;
76373;SDS011;65197;50.164;8.012;2023-02-15T00:30:39;42.80;;;18.52;;
76373;SDS011;65197;50.164;8.012;2023-02-15T00:33:04;42.55;;;18.27;;
76373;SDS011;65197;50.164;8.012;2023-02-15T00:35:29;46.55;;;17.45;;
76373;SDS011;65197;50.164;8.012;2023-02-15T00:37:55;38.33;;;16.77;;
76373;SDS011;65197;50.164;8.012;2023-02-15T00:40:21;40.28;;;16.23;;
76373;SDS011;65197;50.164;8.012;2023-02-15T00:42:46;36.60;;;15.77;;
76373;SDS011;65197;50.164;8.012;2023-02-15T00:45:12;31.40;;;14.82;;
76373;SDS011;65197;50.164;8.012;2023-02-15T00:47:37;28.15;;;13.25;;
76373;SDS011;65197;50.164;8.012;2023-02-15T00:50:02;27.45;;;12.90;;
76373;SDS011;65197;50.164;8.012;2023-02-15T00:52:28;29.60;;;13.35;;
76373;SDS011;65197;50.164;8.012;2023-02-15T00:54:53;29.35;;;12.75;;
76373;SDS011;65197;50.164;8.012;2023-02-15T00:57:19;24.63;;;11.75;;
76373;SDS011;65197;50.164;8.012;2023-02-15T00:59:44;25.60;;;11.48;;
76373;SDS011;65197;50.164;8.012;2023-02-15T01:02:10;18.10;;;9.85;;
76373;SDS011;65197;50.164;8.012;2023-02-15T01:04:35;20.77;;;10.48;;
76373;SDS011;65197;50.164;8.012;2023-02-15T01:07:00;19.05;;;10.00;;
76373;SDS011;65197;50.164;8.012;2023-02-15T01:09:27;20.88;;;11.40;;
76373;SDS011;65197;50.164;8.012;2023-02-15T01:11:53;18.63;;;10.43;;
76373;SDS011;65197;50.164;8.012;2023-02-15T01:14:18;21.80;;;10.60;;
76373;SDS011;65197;50.164;8.012;2023-02-15T01:16:44;19.88;;;9.65;;
76373;SDS011;65197;50.164;8.012;2023-02-15T01:19:09;19.95;;;11.02;;
76373;SDS011;65197;50.164;8.012;2023-02-15T01:21:35;18.30;;;9.32;;
76373;SDS011;65197;50.164;8.012;2023-02-15T01:24:00;23.45;;;10.55;;
76373;SDS011;65197;50.164;8.012;2023-02-15T01:26:26;23.88;;;10.70;;
76373;SDS011;65197;50.164;8.012;2023-02-15T01:28:52;18.98;;;9.98;;
76373;SDS011;65197;50.164;8.012;2023-02-15T01:31:18;22.60;;;11.02;;
76373;SDS011;65197;50.164;8.012;2023-02-15T01:33:45;21.30;;;10.80;;
76373;SDS011;65197;50.164;8.012;2023-02-15T01:36:11;23.58;;;11.45;;
76373;SDS011;65197;50.164;8.012;2023-02-15T01:38:37;25.13;;;11.40;;
76373;SDS011;65197;50.164;8.012;2023-02-15T01:41:04;20.73;;;9.48;;
76373;SDS011;65197;50.164;8.012;2023-02-15T01:43:46;22.80;;;10.75;;
76373;SDS011;65197;50.164;8.012;2023-02-15T01:46:13;23.55;;;10.73;;
76373;SDS011;65197;50.164;8.012;2023-02-15T01:48:43;23.05;;;10.82;;
76373;SDS011;65197;50.164;8.012;2023-02-15T01:51:14;27.10;;;11.88;;
76373;SDS011;65197;50.164;8.012;2023-02-15T01:53:50;26.08;;;11.80;;
76373;SDS011;65197;50.164;8.012;2023-02-15T01:56:19;26.58;;;10.98;;
76373;SDS011;65197;50.164;8.012;2023-02-15T01:58:49;29.60;;;12.80;;
76373;SDS011;65197;50.164;8.012;2023-02-15T02:01:15;31.35;;;13.18;;
76373;SDS011;65197;50.164;8.012;2023-02-15T02:03:50;31.00;;;13.85;;
76373;SDS011;65197;50.164;8.012;2023-02-15T02:06:34;31.63;;;13.02;;
76373;SDS011;65197;50.164;8.012;2023-02-15T02:09:01;33.00;;;12.63;;
76373;SDS011;65197;50.164;8.012;2023-02-15T02:11:27;30.05;;;12.98;;
76373;SDS011;65197;50.164;8.012;2023-02-15T02:13:53;32.40;;;13.35;;
76373;SDS011;65197;50.164;8.012;2023-02-15T02:22:08;23.30;;;11.65;;
76373;SDS011;65197;50.164;8.012;2023-02-15T02:30:59;28.90;;;11.82;;
76373;SDS011;65197;50.164;8.012;2023-02-15T02:33:47;26.55;;;12.75;;
76373;SDS011;65197;50.164;8.012;2023-02-15T02:44:49;31.55;;;13.10;;
76373;SDS011;65197;50.164;8.012;2023-02-15T02:49:51;23.60;;;11.88;;
76373;SDS011;65197;50.164;8.012;2023-02-15T02:58:03;29.80;;;12.98;;
76373;SDS011;65197;50.164;8.012;2023-02-15T03:01:17;51.22;;;12.23;;
76373;SDS011;65197;50.164;8.012;2023-02-15T03:06:58;126.70;;;14.13;;
76373;SDS011;65197;50.164;8.012;2023-02-15T03:09:28;125.55;;;16.70;;
76373;SDS011;65197;50.164;8.012;2023-02-15T03:12:16;72.90;;;10.43;;
76373;SDS011;65197;50.164;8.012;2023-02-15T03:14:47;64.47;;;10.82;;
76373;SDS011;65197;50.164;8.012;2023-02-15T03:17:16;69.25;;;12.90;;
76373;SDS011;65197;50.164;8.012;2023-02-15T03:19:45;73.53;;;13.15;;
76373;SDS011;65197;50.164;8.012;2023-02-15T03:22:14;60.60;;;12.13;;
76373;SDS011;65197;50.164;8.012;2023-02-15T03:27:22;40.45;;;13.65;;
76373;SDS011;65197;50.164;8.012;2023-02-15T03:29:53;34.03;;;11.15;;
76373;SDS011;65197;50.164;8.012;2023-02-15T03:32:21;50.72;;;13.60;;
76373;SDS011;65197;50.164;8.012;2023-02-15T03:34:49;44.47;;;13.10;;
76373;SDS011;65197;50.164;8.012;2023-02-15T03:37:20;54.83;;;13.40;;
76373;SDS011;65197;50.164;8.012;2023-02-15T03:40:17;44.58;;;14.70;;
76373;SDS011;65197;50.164;8.012;2023-02-15T03:45:56;30.60;;;12.20;;
76373;SDS011;65197;50.164;8.012;2023-02-15T03:51:28;38.28;;;12.07;;
76373;SDS011;65197;50.164;8.012;2023-02-15T03:54:10;32.00;;;13.52;;
76373;SDS011;65197;50.164;8.012;2023-02-15T03:57:03;32.10;;;13.50;;
76373;SDS011;65197;50.164;8.012;2023-02-15T03:59:48;36.00;;;15.25;;
76373;SDS011;65197;50.164;8.012;2023-02-15T04:02:38;36.25;;;13.07;;
76373;SDS011;65197;50.164;8.012;2023-02-15T04:05:09;39.80;;;15.52;;
76373;SDS011;65197;50.164;8.012;2023-02-15T04:07:35;35.67;;;14.15;;
76373;SDS011;65197;50.164;8.012;2023-02-15T04:10:00;38.67;;;16.23;;
76373;SDS011;65197;50.164;8.012;2023-02-15T04:12:44;40.67;;;16.08;;
76373;SDS011;65197;50.164;8.012;2023-02-15T04:15:11;35.35;;;14.30;;
76373;SDS011;65197;50.164;8.012;2023-02-15T04:17:56;39.85;;;14.20;;
76373;SDS011;65197;50.164;8.012;2023-02-15T04:20:21;32.17;;;12.73;;
76373;SDS011;65197;50.164;8.012;2023-02-15T04:23:06;31.42;;;14.02;;
76373;SDS011;65197;50.164;8.012;2023-02-15T04:25:50;36.20;;;14.27;;
76373;SDS011;65197;50.164;8.012;2023-02-15T04:28:16;36.13;;;13.68;;
76373;SDS011;65197;50.164;8.012;2023-02-15T04:30:41;30.30;;;12.23;;
76373;SDS011;65197;50.164;8.012;2023-02-15T04:33:06;40.92;;;14.27;;
76373;SDS011;65197;50.164;8.012;2023-02-15T04:35:32;28.73;;;11.88;;
76373;SDS011;65197;50.164;8.012;2023-02-15T04:37:58;32.95;;;10.13;;
76373;SDS011;65197;50.164;8.012;2023-02-15T04:40:24;32.47;;;12.32;;
76373;SDS011;65197;50.164;8.012;2023-02-15T04:42:49;28.65;;;11.95;;
76373;SDS011;65197;50.164;8.012;2023-02-15T04:45:15;36.83;;;13.07;;
76373;SDS011;65197;50.164;8.012;2023-02-15T04:47:41;33.63;;;10.80;;
76373;SDS011;65197;50.164;8.012;2023-02-15T04:50:06;75.65;;;14.63;;
76373;SDS011;65197;50.164;8.012;2023-02-15T04:52:32;37.38;;;12.23;;
76373;SDS011;65197;50.164;8.012;2023-02-15T04:54:57;35.33;;;12.57;;
76373;SDS011;65197;50.164;8.012;2023-02-15T04:57:23;66.07;;;14.73;;
76373;SDS011;65197;50.164;8.012;2023-02-15T04:59:48;83.30;;;14.48;;
76373;SDS011;65197;50.164;8.012;2023-02-15T05:02:13;59.33;;;12.00;;
76373;SDS011;65197;50.164;8.012;2023-02-15T05:04:39;59.78;;;10.95;;
76373;SDS011;65197;50.164;8.012;2023-02-15T05:07:04;80.28;;;11.27;;
76373;SDS011;65197;50.164;8.012;2023-02-15T05:09:29;34.35;;;10.65;;
76373;SDS011;65197;50.164;8.012;2023-02-15T05:11:55;54.08;;;11.38;;
76373;SDS011;65197;50.164;8.012;2023-02-15T05:14:20;76.72;;;14.05;;
76373;SDS011;65197;50.164;8.012;2023-02-15T05:16:45;85.82;;;13.02;;
76373;SDS011;65197;50.164;8.012;2023-02-15T05:19:11;90.93;;;12.25;;
76373;SDS011;65197;50.164;8.012;2023-02-15T05:21:36;79.72;;;12.55;;
76373;SDS011;65197;50.164;8.012;2023-02-15T05:24:02;64.20;;;12.60;;
76373;SDS011;65197;50.164;8.012;2023-02-15T05:26:47;84.65;;;13.15;;
76373;SDS011;65197;50.164;8.012;2023-02-15T05:29:31;61.78;;;10.80;;
76373;SDS011;65197;50.164;8.012;2023-02-15T05:31:56;116.55;;;16.20;;
76373;SDS011;65197;50.164;8.012;2023-02-15T05:34:22;58.13;;;10.88;;
76373;SDS011;65197;50.164;8.012;2023-02-15T05:36:47;58.75;;;11.13;;
76373;SDS011;65197;50.164;8.012;2023-02-15T05:39:12;71.40;;;13.25;;
76373;SDS011;65197;50.164;8.012;2023-02-15T05:41:38;123.18;;;16.95;;
76373;SDS011;65197;50.164;8.012;2023-02-15T05:44:03;81.05;;;12.55;;
76373;SDS011;65197;50.164;8.012;2023-02-15T05:46:29;119.32;;;12.88;;
76373;SDS011;65197;50.164;8.012;2023-02-15T05:48:54;121.70;;;17.88;;
76373;SDS011;65197;50.164;8.012;2023-02-15T05:51:19;93.75;;;13.07;;
76373;SDS011;65197;50.164;8.012;2023-02-15T05:53:45;97.90;;;13.55;;
76373;SDS011;65197;50.164;8.012;2023-02-15T05:56:10;88.18;;;12.75;;
76373;SDS011;65197;50.164;8.012;2023-02-15T05:58:38;54.50;;;12.38;;
76373;SDS011;65197;50.164;8.012;2023-02-15T06:01:11;96.82;;;13.38;;
76373;SDS011;65197;50.164;8.012;2023-02-15T06:03:37;64.72;;;12.57;;
76373;SDS011;65197;50.164;8.012;2023-02-15T06:06:03;83.93;;;13.93;;
76373;SDS011;65197;50.164;8.012;2023-02-15T06:08:29;60.25;;;11.95;;
76373;SDS011;65197;50.164;8.012;2023-02-15T06:10:55;41.65;;;10.13;;
76373;SDS011;65197;50.164;8.012;2023-02-15T06:13:21;49.83;;;11.05;;
76373;SDS011;65197;50.164;8.012;2023-02-15T06:15:46;67.85;;;12.65;;
76373;SDS011;65197;50.164;8.012;2023-02-15T06:18:11;53.95;;;10.98;;
76373;SDS011;65197;50.164;8.012;2023-02-15T06:20:37;56.17;;;12.52;;
76373;SDS011;65197;50.164;8.012;2023-02-15T06:23:02;54.65;;;10.57;;
76373;SDS011;65197;50.164;8.012;2023-02-15T06:25:27;51.65;;;11.25;;
76373;SDS011;65197;50.164;8.012;2023-02-15T06:27:53;81.78;;;12.05;;
76373;SDS011;65197;50.164;8.012;2023-02-15T06:30:19;57.70;;;12.57;;
76373;SDS011;65197;50.164;8.012;2023-02-15T06:32:45;87.43;;;13.25;;
76373;SDS011;65197;50.164;8.012;2023-02-15T06:35:10;54.90;;;9.75;;
76373;SDS011;65197;50.164;8.012;2023-02-15T06:37:36;79.18;;;13.60;;
76373;SDS011;65197;50.164;8.012;2023-02-15T06:40:02;67.95;;;10.23;;
76373;SDS011;65197;50.164;8.012;2023-02-15T06:42:29;46.42;;;10.55;;
76373;SDS011;65197;50.164;8.012;2023-02-15T06:44:54;68.53;;;11.07;;
76373;SDS011;65197;50.164;8.012;2023-02-15T06:47:19;57.95;;;11.05;;
76373;SDS011;65197;50.164;8.012;2023-02-15T06:49:45;79.20;;;11.45;;
76373;SDS011;65197;50.164;8.012;2023-02-15T06:52:10;87.18;;;12.98;;
76373;SDS011;65197;50.164;8.012;2023-02-15T06:54:35;96.47;;;12.82;;
76373;SDS011;65197;50.164;8.012;2023-02-15T06:57:01;95.57;;;11.93;;
76373;SDS011;65197;50.164;8.012;2023-02-15T06:59:26;47.10;;;10.73;;
76373;SDS011;65197;50.164;8.012;2023-02-15T07:01:51;59.25;;;10.63;;
76373;SDS011;65197;50.164;8.012;2023-02-15T07:04:17;39.38;;;8.55;;
76373;SDS011;65197;50.164;8.012;2023-02-15T07:06:42;77.70;;;9.77;;
76373;SDS011;65197;50.164;8.012;2023-02-15T07:09:08;90.90;;;11.75;;
76373;SDS011;65197;50.164;8.012;2023-02-15T07:11:34;80.30;;;11.13;;
76373;SDS011;65197;50.164;8.012;2023-02-15T07:14:18;74.65;;;9.45;;
76373;SDS011;65197;50.164;8.012;2023-02-15T07:16:43;80.32;;;11.10;;
76373;SDS011;65197;50.164;8.012;2023-02-15T07:19:08;89.30;;;12.43;;
76373;SDS011;65197;50.164;8.012;2023-02-15T07:21:34;68.95;;;10.68;;
76373;SDS011;65197;50.164;8.012;2023-02-15T07:24:00;64.75;;;9.30;;
76373;SDS011;65197;50.164;8.012;2023-02-15T07:26:26;101.60;;;10.68;;
76373;SDS011;65197;50.164;8.012;2023-02-15T07:28:52;80.90;;;10.70;;
76373;SDS011;65197;50.164;8.012;2023-02-15T07:31:17;94.05;;;12.52;;
76373;SDS011;65197;50.164;8.012;2023-02-15T07:33:42;111.75;;;11.55;;
76373;SDS011;65197;50.164;8.012;2023-02-15T07:36:08;76.75;;;10.55;;
76373;SDS011;65197;50.164;8.012;2023-02-15T07:38:38;114.82;;;13.32;;
76373;SDS011;65197;50.164;8.012;2023-02-15T07:41:05;100.45;;;11.32;;
76373;SDS011;65197;50.164;8.012;2023-02-15T07:43:33;68.03;;;12.15;;
76373;SDS011;65197;50.164;8.012;2023-02-15T07:46:04;167.63;;;18.48;;
76373;SDS011;65197;50.164;8.012;2023-02-15T07:48:32;69.07;;;12.68;;
76373;SDS011;65197;50.164;8.012;2023-02-15T07:50:59;101.60;;;15.38;;
76373;SDS011;65197;50.164;8.012;2023-02-15T07:53:25;109.53;;;13.27;;
76373;SDS011;65197;50.164;8.012;2023-02-15T07:55:50;147.52;;;16.50;;
76373;SDS011;65197;50.164;8.012;2023-02-15T07:58:17;41.47;;;10.05;;
76373;SDS011;65197;50.164;8.012;2023-02-15T08:00:42;51.55;;;10.23;;
76373;SDS011;65197;50.164;8.012;2023-02-15T08:03:26;43.05;;;9.18;;
76373;SDS011;65197;50.164;8.012;2023-02-15T08:05:57;65.88;;;10.38;;
76373;SDS011;65197;50.164;8.012;2023-02-15T08:08:24;50.90;;;8.88;;
76373;SDS011;65197;50.164;8.012;2023-02-15T08:14:05;78.10;;;11.93;;
76373;SDS011;65197;50.164;8.012;2023-02-15T08:18:58;37.85;;;7.18;;
76373;SDS011;65197;50.164;8.012;2023-02-15T08:21:26;79.57;;;10.50;;
76373;SDS011;65197;50.164;8.012;2023-02-15T08:23:53;80.13;;;10.65;;
76373;SDS011;65197;50.164;8.012;2023-02-15T08:26:19;38.33;;;9.40;;
76373;SDS011;65197;50.164;8.012;2023-02-15T08:28:44;80.13;;;11.43;;
76373;SDS011;65197;50.164;8.012;2023-02-15T08:31:11;38.05;;;9.05;;
76373;SDS011;65197;50.164;8.012;2023-02-15T08:33:38;36.47;;;7.30;;
76373;SDS011;65197;50.164;8.012;2023-02-15T08:36:05;47.70;;;9.40;;
76373;SDS011;65197;50.164;8.012;2023-02-15T08:38:36;36.75;;;8.13;;
76373;SDS011;65197;50.164;8.012;2023-02-15T08:43:41;25.17;;;7.57;;
76373;SDS011;65197;50.164;8.012;2023-02-15T08:46:08;21.98;;;6.90;;
76373;SDS011;65197;50.164;8.012;2023-02-15T08:48:37;17.23;;;7.22;;
76373;SDS011;65197;50.164;8.012;2023-02-15T08:51:09;26.02;;;8.90;;
76373;SDS011;65197;50.164;8.012;2023-02-15T08:53:40;37.22;;;8.35;;
76373;SDS011;65197;50.164;8.012;2023-02-15T08:56:09;21.67;;;7.63;;
76373;SDS011;65197;50.164;8.012;2023-02-15T08:58:35;15.40;;;6.82;;
76373;SDS011;65197;50.164;8.012;2023-02-15T09:01:02;15.25;;;7.18;;
76373;SDS011;65197;50.164;8.012;2023-02-15T09:03:33;27.10;;;9.07;;
76373;SDS011;65197;50.164;8.012;2023-02-15T09:05:59;23.98;;;8.55;;
76373;SDS011;65197;50.164;8.012;2023-02-15T09:08:25;23.02;;;9.27;;
76373;SDS011;65197;50.164;8.012;2023-02-15T09:10:51;19.00;;;7.90;;
76373;SDS011;65197;50.164;8.012;2023-02-15T09:13:17;19.48;;;8.65;;
76373;SDS011;65197;50.164;8.012;2023-02-15T09:15:42;14.93;;;7.47;;
76373;SDS011;65197;50.164;8.012;2023-02-15T09:18:08;17.33;;;7.45;;
76373;SDS011;65197;50.164;8.012;2023-02-15T09:20:36;16.17;;;7.90;;
76373;SDS011;65197;50.164;8.012;2023-02-15T09:23:01;18.75;;;9.60;;
76373;SDS011;65197;50.164;8.012;2023-02-15T09:25:27;15.45;;;7.60;;
76373;SDS011;65197;50.164;8.012;2023-02-15T09:27:52;13.10;;;6.78;;
76373;SDS011;65197;50.164;8.012;2023-02-15T09:30:18;12.02;;;6.43;;
76373;SDS011;65197;50.164;8.012;2023-02-15T09:32:43;13.57;;;6.68;;
76373;SDS011;65197;50.164;8.012;2023-02-15T09:35:11;15.48;;;7.05;;
76373;SDS011;65197;50.164;8.012;2023-02-15T09:37:36;11.80;;;6.45;;
76373;SDS011;65197;50.164;8.012;2023-02-15T09:40:02;16.65;;;6.65;;
76373;SDS011;65197;50.164;8.012;2023-02-15T09:47:54;12.23;;;6.47;;
76373;SDS011;65197;50.164;8.012;2023-02-15T09:53:44;12.32;;;6.85;;
76373;SDS011;65197;50.164;8.012;2023-02-15T09:56:30;9.57;;;6.03;;
76373;SDS011;65197;50.164;8.012;2023-02-15T10:07:30;10.05;;;6.63;;
76373;SDS011;65197;50.164;8.012;2023-02-15T10:10:23;11.00;;;5.80;;
76373;SDS011;65197;50.164;8.012;2023-02-15T10:26:43;9.52;;;5.63;;
76373;SDS011;65197;50.164;8.012;2023-02-15T10:32:04;12.48;;;6.95;;
76373;SDS011;65197;50.164;8.012;2023-02-15T10:34:45;11.35;;;6.40;;
76373;SDS011;65197;50.164;8.012;2023-02-15T11:07:55;13.02;;;6.55;;
76373;SDS011;65197;50.164;8.012;2023-02-15T11:13:09;9.68;;;5.82;;
76373;SDS011;65197;50.164;8.012;2023-02-15T11:15:40;11.38;;;6.80;;
76373;SDS011;65197;50.164;8.012;2023-02-15T11:18:46;11.02;;;6.75;;
76373;SDS011;65197;50.164;8.012;2023-02-15T11:23:44;11.60;;;6.13;;
76373;SDS011;65197;50.164;8.012;2023-02-15T11:26:13;11.23;;;6.60;;
76373;SDS011;65197;50.164;8.012;2023-02-15T11:28:55;11.02;;;6.57;;
76373;SDS011;65197;50.164;8.012;2023-02-15T11:31:27;12.25;;;7.28;;
76373;SDS011;65197;50.164;8.012;2023-02-15T11:34:03;11.95;;;6.43;;
76373;SDS011;65197;50.164;8.012;2023-02-15T11:36:37;10.18;;;5.40;;
76373;SDS011;65197;50.164;8.012;2023-02-15T11:39:10;11.93;;;6.60;;
76373;SDS011;65197;50.164;8.012;2023-02-15T11:41:41;12.20;;;7.28;;
76373;SDS011;65197;50.164;8.012;2023-02-15T11:44:13;12.30;;;6.82;;
76373;SDS011;65197;50.164;8.012;2023-02-15T11:46:42;11.98;;;7.18;;
76373;SDS011;65197;50.164;8.012;2023-02-15T11:49:12;12.05;;;7.18;;
76373;SDS011;65197;50.164;8.012;2023-02-15T11:51:45;12.48;;;6.53;;
76373;SDS011;65197;50.164;8.012;2023-02-15T11:54:10;14.02;;;7.25;;
76373;SDS011;65197;50.164;8.012;2023-02-15T11:56:36;12.80;;;7.40;;
76373;SDS011;65197;50.164;8.012;2023-02-15T11:59:03;13.23;;;6.68;;
76373;SDS011;65197;50.164;8.012;2023-02-15T12:01:41;13.25;;;7.90;;
76373;SDS011;65197;50.164;8.012;2023-02-15T12:04:22;11.05;;;6.65;;
76373;SDS011;65197;50.164;8.012;2023-02-15T12:06:55;14.45;;;7.88;;
76373;SDS011;65197;50.164;8.012;2023-02-15T12:09:30;12.40;;;8.10;;
76373;SDS011;65197;50.164;8.012;2023-02-15T12:14:47;12.35;;;7.60;;
76373;SDS011;65197;50.164;8.012;2023-02-15T12:17:14;12.95;;;7.40;;
76373;SDS011;65197;50.164;8.012;2023-02-15T12:19:41;11.30;;;7.13;;
76373;SDS011;65197;50.164;8.012;2023-02-15T12:22:22;12.70;;;7.60;;
76373;SDS011;65197;50.164;8.012;2023-02-15T12:24:50;14.10;;;7.80;;
76373;SDS011;65197;50.164;8.012;2023-02-15T12:27:21;13.75;;;7.75;;
76373;SDS011;65197;50.164;8.012;2023-02-15T12:29:52;14.48;;;8.80;;
76373;SDS011;65197;50.164;8.012;2023-02-15T12:32:25;12.32;;;7.95;;
76373;SDS011;65197;50.164;8.012;2023-02-15T12:35:27;13.88;;;8.07;;
76373;SDS011;65197;50.164;8.012;2023-02-15T12:38:03;14.85;;;9.13;;
76373;SDS011;65197;50.164;8.012;2023-02-15T12:40:31;15.93;;;8.18;;
76373;SDS011;65197;50.164;8.012;2023-02-15T12:42:58;13.80;;;7.93;;
76373;SDS011;65197;50.164;8.012;2023-02-15T12:48:14;15.05;;;8.98;;
76373;SDS011;65197;50.164;8.012;2023-02-15T12:50:49;15.90;;;8.95;;
76373;SDS011;65197;50.164;8.012;2023-02-15T12:53:17;14.27;;;8.38;;
76373;SDS011;65197;50.164;8.012;2023-02-15T12:56:06;13.75;;;8.75;;
76373;SDS011;65197;50.164;8.012;2023-02-15T12:58:35;14.90;;;9.07;;
76373;SDS011;65197;50.164;8.012;2023-02-15T13:01:03;15.43;;;9.48;;
76373;SDS011;65197;50.164;8.012;2023-02-15T13:03:37;13.10;;;8.52;;
76373;SDS011;65197;50.164;8.012;2023-02-15T13:06:14;13.98;;;8.85;;
76373;SDS011;65197;50.164;8.012;2023-02-15T13:08:46;17.33;;;9.23;;
76373;SDS011;65197;50.164;8.012;2023-02-15T13:11:19;15.55;;;8.90;;
76373;SDS011;65197;50.164;8.012;2023-02-15T13:14:48;13.55;;;7.93;;
76373;SDS011;65197;50.164;8.012;2023-02-15T13:16:56;15.35;;;8.98;;
76373;SDS011;65197;50.164;8.012;2023-02-15T13:19:33;15.30;;;8.75;;
76373;SDS011;65197;50.164;8.012;2023-02-15T13:21:59;15.73;;;9.82;;
76373;SDS011;65197;50.164;8.012;2023-02-15T13:24:28;14.57;;;8.68;;
76373;SDS011;65197;50.164;8.012;2023-02-15T13:26:57;15.27;;;9.15;;
76373;SDS011;65197;50.164;8.012;2023-02-15T13:29:27;14.73;;;9.52;;
76373;SDS011;65197;50.164;8.012;2023-02-15T13:31:54;15.18;;;10.05;;
76373;SDS011;65197;50.164;8.012;2023-02-15T13:34:23;14.15;;;8.38;;
76373;SDS011;65197;50.164;8.012;2023-02-15T13:39:39;15.80;;;9.75;;
76373;SDS011;65197;50.164;8.012;2023-02-15T13:42:18;14.65;;;8.55;;
76373;SDS011;65197;50.164;8.012;2023-02-15T13:53:07;17.23;;;9.65;;
76373;SDS011;65197;50.164;8.012;2023-02-15T13:58:42;15.00;;;9.50;;
76373;SDS011;65197;50.164;8.012;2023-02-15T14:07:21;14.38;;;8.73;;
76373;SDS011;65197;50.164;8.012;2023-02-15T14:12:53;17.20;;;9.30;;
76373;SDS011;65197;50.164;8.012;2023-02-15T14:15:36;16.65;;;9.27;;
76373;SDS011;65197;50.164;8.012;2023-02-15T14:24:11;13.75;;;8.88;;
76373;SDS011;65197;50.164;8.012;2023-02-15T14:26:51;16.25;;;9.60;;
76373;SDS011;65197;50.164;8.012;2023-02-15T14:31:59;16.17;;;9.23;;
76373;SDS011;65197;50.164;8.012;2023-02-15T14:37:10;15.68;;;9.35;;
76373;SDS011;65197;50.164;8.012;2023-02-15T14:39:57;12.75;;;8.63;;
76373;SDS011;65197;50.164;8.012;2023-02-15T14:48:09;13.52;;;8.60;;
76373;SDS011;65197;50.164;8.012;2023-02-15T14:50:47;14.82;;;9.45;;
76373;SDS011;65197;50.164;8.012;2023-02-15T14:56:06;14.70;;;8.73;;
76373;SDS011;65197;50.164;8.012;2023-02-15T15:01:25;17.45;;;9.77;;
76373;SDS011;65197;50.164;8.012;2023-02-15T15:03:57;15.18;;;8.75;;
76373;SDS011;65197;50.164;8.012;2023-02-15T15:06:32;13.93;;;8.65;;
76373;SDS011;65197;50.164;8.012;2023-02-15T15:09:21;18.83;;;9.65;;
76373;SDS011;65197;50.164;8.012;2023-02-15T15:11:51;15.07;;;9.52;;
76373;SDS011;65197;50.164;8.012;2023-02-15T15:14:37;14.73;;;8.35;;
76373;SDS011;65197;50.164;8.012;2023-02-15T15:17:05;14.75;;;9.20;;
76373;SDS011;65197;50.164;8.012;2023-02-15T15:22:17;18.77;;;10.15;;
76373;SDS011;65197;50.164;8.012;2023-02-15T15:27:59;19.63;;;10.98;;
76373;SDS011;65197;50.164;8.012;2023-02-15T15:38:40;18.15;;;11.05;;
76373;SDS011;65197;50.164;8.012;2023-02-15T15:44:19;19.85;;;10.95;;
76373;SDS011;65197;50.164;8.012;2023-02-15T15:50:14;20.48;;;11.45;;
76373;SDS011;65197;50.164;8.012;2023-02-15T15:52:49;22.90;;;12.35;;
76373;SDS011;65197;50.164;8.012;2023-02-15T15:55:22;20.38;;;10.82;;
76373;SDS011;65197;50.164;8.012;2023-02-15T15:57:51;19.73;;;11.25;;
76373;SDS011;65197;50.164;8.012;2023-02-15T16:00:25;21.38;;;12.20;;
76373;SDS011;65197;50.164;8.012;2023-02-15T16:02:53;21.13;;;11.05;;
76373;SDS011;65197;50.164;8.012;2023-02-15T16:05:20;19.38;;;12.07;;
76373;SDS011;65197;50.164;8.012;2023-02-15T16:07:45;22.73;;;12.82;;
76373;SDS011;65197;50.164;8.012;2023-02-15T16:10:27;19.98;;;11.80;;
76373;SDS011;65197;50.164;8.012;2023-02-15T16:12:54;22.20;;;12.23;;
76373;SDS011;65197;50.164;8.012;2023-02-15T16:15:22;22.50;;;12.07;;
76373;SDS011;65197;50.164;8.012;2023-02-15T16:17:53;24.75;;;13.00;;
76373;SDS011;65197;50.164;8.012;2023-02-15T16:20:34;22.20;;;12.75;;
76373;SDS011;65197;50.164;8.012;2023-02-15T16:28:58;28.55;;;14.02;;
76373;SDS011;65197;50.164;8.012;2023-02-15T16:31:23;28.80;;;14.25;;
76373;SDS011;65197;50.164;8.012;2023-02-15T16:33:51;29.45;;;15.07;;
76373;SDS011;65197;50.164;8.012;2023-02-15T16:43:46;29.67;;;15.13;;
76373;SDS011;65197;50.164;8.012;2023-02-15T16:46:15;30.17;;;15.98;;
76373;SDS011;65197;50.164;8.012;2023-02-15T16:48:45;29.42;;;15.05;;
76373;SDS011;65197;50.164;8.012;2023-02-15T16:51:18;32.28;;;14.70;;
76373;SDS011;65197;50.164;8.012;2023-02-15T16:53:47;30.70;;;15.45;;
76373;SDS011;65197;50.164;8.012;2023-02-15T16:56:13;31.55;;;14.55;;
76373;SDS011;65197;50.164;8.012;2023-02-15T16:58:41;29.88;;;15.55;;
76373;SDS011;65197;50.164;8.012;2023-02-15T17:01:10;34.97;;;15.52;;
76373;SDS011;65197;50.164;8.012;2023-02-15T17:03:38;35.22;;;16.48;;
76373;SDS011;65197;50.164;8.012;2023-02-15T17:06:05;30.67;;;15.98;;
76373;SDS011;65197;50.164;8.012;2023-02-15T17:09:02;33.63;;;16.45;;
76373;SDS011;65197;50.164;8.012;2023-02-15T17:11:42;30.42;;;15.80;;
76373;SDS011;65197;50.164;8.012;2023-02-15T17:16:41;33.42;;;18.00;;
76373;SDS011;65197;50.164;8.012;2023-02-15T17:21:55;34.08;;;15.98;;
76373;SDS011;65197;50.164;8.012;2023-02-15T17:24:31;35.97;;;17.58;;
76373;SDS011;65197;50.164;8.012;2023-02-15T17:27:06;38.65;;;17.95;;
76373;SDS011;65197;50.164;8.012;2023-02-15T17:29:41;36.60;;;17.98;;
76373;SDS011;65197;50.164;8.012;2023-02-15T17:32:15;36.30;;;17.27;;
76373;SDS011;65197;50.164;8.012;2023-02-15T17:37:27;35.17;;;16.23;;
76373;SDS011;65197;50.164;8.012;2023-02-15T17:39:56;39.88;;;17.55;;
76373;SDS011;65197;50.164;8.012;2023-02-15T17:42:23;35.47;;;17.38;;
76373;SDS011;65197;50.164;8.012;2023-02-15T17:44:49;34.63;;;16.30;;
76373;SDS011;65197;50.164;8.012;2023-02-15T17:47:15;38.53;;;18.27;;
76373;SDS011;65197;50.164;8.012;2023-02-15T17:49:43;39.45;;;18.58;;
76373;SDS011;65197;50.164;8.012;2023-02-15T17:52:12;39.92;;;19.15;;
76373;SDS011;65197;50.164;8.012;2023-02-15T17:54:41;39.53;;;17.95;;
76373;SDS011;65197;50.164;8.012;2023-02-15T17:57:25;38.70;;;18.63;;
76373;SDS011;65197;50.164;8.012;2023-02-15T17:59:52;35.28;;;17.02;;
76373;SDS011;65197;50.164;8.012;2023-02-15T18:02:36;38.50;;;17.27;;
76373;SDS011;65197;50.164;8.012;2023-02-15T18:05:19;37.78;;;17.63;;
76373;SDS011;65197;50.164;8.012;2023-02-15T18:08:05;36.13;;;17.17;;
76373;SDS011;65197;50.164;8.012;2023-02-15T18:10:53;35.95;;;16.38;;
76373;SDS011;65197;50.164;8.012;2023-02-15T18:13:38;40.55;;;17.98;;
76373;SDS011;65197;50.164;8.012;2023-02-15T18:16:03;40.47;;;18.35;;